AXY75 EFHK-LGAV
Flight info
| Callsign | AXY75 |
|---|---|
| Flight time | N/A |
| Altitude | 40000 |
| Route | KOIVU DCT LARTI DCT NAVOT DCT LUTAL DCT BERIL/N0472F410 DCT SUWGI/N0470F400 DCT TITUV M985 SUTIK DCT LOGDA/N0469F410 DCT KSC DCT NARKA DCT ORA DCT ADUKU DCT BAVMA DCT EVRIK DCT OLMIP DCT EKNAB DCT SODGO DCT OVDOT DCT LOMOS/N0464F400 DCT BOBVO DCT LETNI/N0466F410 DCT MAKED DCT SIGFO UM749 ROPOX |
| Aircraft | A343/H-SDE2E3FGHIJ4J5M1RWXY/LB1D1 |
Departure
| Time | 2026-05-06 21:30 |
|---|---|
| Airport | Helsinki Vantaa Airport (EFHK) |
Arrival
| Time | N/A |
|---|---|
| Airport | Athens Eleftherios Venizelos International Airport (LGAV) |
| Time | Latitude | Longitude | Altitude | Speed | Heading |
|---|---|---|---|---|---|
| 2026-05-06 20:15 | 60.31421 | 24.95500 | 171 ft | 0 kts | 137° |
| 2026-05-06 21:13 | 60.31436 | 24.95470 | 171 ft | 4 kts | 127° |
| 2026-05-06 21:13 | 60.31450 | 24.95423 | 171 ft | 4 kts | 112° |
| 2026-05-06 21:13 | 60.31458 | 24.95372 | 171 ft | 4 kts | 100° |
| 2026-05-06 21:13 | 60.31461 | 24.95318 | 171 ft | 4 kts | 93° |
| 2026-05-06 21:14 | 60.31463 | 24.95264 | 171 ft | 4 kts | 102° |
| 2026-05-06 21:14 | 60.31469 | 24.95231 | 171 ft | 0 kts | 138° |
| 2026-05-06 21:19 | 60.31463 | 24.95242 | 171 ft | 4 kts | 137° |
| 2026-05-06 21:19 | 60.31451 | 24.95327 | 171 ft | 9 kts | 83° |
| 2026-05-06 21:19 | 60.31498 | 24.95447 | 171 ft | 12 kts | 47° |
| 2026-05-06 21:19 | 60.31552 | 24.95569 | 171 ft | 12 kts | 48° |
| 2026-05-06 21:20 | 60.31619 | 24.95693 | 171 ft | 14 kts | 36° |
| 2026-05-06 21:20 | 60.31671 | 24.95780 | 171 ft | 15 kts | 46° |
| 2026-05-06 21:20 | 60.31771 | 24.96006 | 171 ft | 17 kts | 46° |
| 2026-05-06 21:20 | 60.31850 | 24.96136 | 171 ft | 11 kts | 10° |
| 2026-05-06 21:21 | 60.31910 | 24.96064 | 171 ft | 11 kts | 318° |
| 2026-05-06 21:21 | 60.31957 | 24.95978 | 175 ft | 6 kts | 316° |
| 2026-05-06 21:21 | 60.31980 | 24.95933 | 176 ft | 3 kts | 317° |
| 2026-05-06 21:21 | 60.31986 | 24.95923 | 176 ft | 0 kts | 317° |
| 2026-05-06 21:22 | 60.31986 | 24.95922 | 176 ft | 0 kts | 317° |
| 2026-05-06 21:23 | 60.31989 | 24.95918 | 176 ft | 0 kts | 317° |
| 2026-05-06 21:23 | 60.31990 | 24.95915 | 176 ft | 0 kts | 317° |
| 2026-05-06 21:23 | 60.31992 | 24.95911 | 176 ft | 0 kts | 317° |
| 2026-05-06 21:25 | 60.31999 | 24.95899 | 177 ft | 3 kts | 317° |
| 2026-05-06 21:25 | 60.32032 | 24.95837 | 178 ft | 11 kts | 317° |
| 2026-05-06 21:25 | 60.32109 | 24.95694 | 177 ft | 18 kts | 317° |
| 2026-05-06 21:25 | 60.32191 | 24.95545 | 178 ft | 16 kts | 318° |
| 2026-05-06 21:26 | 60.32272 | 24.95395 | 180 ft | 16 kts | 316° |
| 2026-05-06 21:26 | 60.32357 | 24.95264 | 181 ft | 15 kts | 337° |
| 2026-05-06 21:26 | 60.32457 | 24.95195 | 183 ft | 16 kts | 342° |
| 2026-05-06 21:26 | 60.32571 | 24.95121 | 199 ft | 18 kts | 342° |
| 2026-05-06 21:27 | 60.32699 | 24.95038 | 183 ft | 20 kts | 342° |
| 2026-05-06 21:27 | 60.32844 | 24.94943 | 179 ft | 22 kts | 341° |
| 2026-05-06 21:27 | 60.32943 | 24.94821 | 181 ft | 15 kts | 319° |
| 2026-05-06 21:27 | 60.33018 | 24.94685 | 194 ft | 14 kts | 317° |
| 2026-05-06 21:28 | 60.33061 | 24.94603 | 197 ft | 12 kts | 316° |
| 2026-05-06 21:28 | 60.33110 | 24.94507 | 210 ft | 8 kts | 315° |
| 2026-05-06 21:28 | 60.33124 | 24.94420 | 205 ft | 5 kts | 252° |
| 2026-05-06 21:28 | 60.33109 | 24.94384 | 209 ft | 2 kts | 230° |
| 2026-05-06 21:29 | 60.33086 | 24.94329 | 207 ft | 12 kts | 229° |
| 2026-05-06 21:29 | 60.32917 | 24.93942 | 200 ft | 71 kts | 228° |
| 2026-05-06 21:29 | 60.32425 | 24.92870 | 177 ft | 134 kts | 227° |
| 2026-05-06 21:29 | 60.31697 | 24.91246 | 487 ft | 156 kts | 232° |
| 2026-05-06 21:30 | 60.31038 | 24.89613 | 1316 ft | 155 kts | 231° |
| 2026-05-06 21:30 | 60.30330 | 24.87873 | 1896 ft | 166 kts | 234° |
| 2026-05-06 21:30 | 60.29614 | 24.85925 | 2535 ft | 179 kts | 237° |
| 2026-05-06 21:30 | 60.28931 | 24.83744 | 3294 ft | 188 kts | 239° |
| 2026-05-06 21:31 | 60.28208 | 24.81445 | 3972 ft | 204 kts | 237° |
| 2026-05-06 21:31 | 60.27392 | 24.78925 | 4539 ft | 225 kts | 236° |
| 2026-05-06 21:31 | 60.26508 | 24.76098 | 5175 ft | 250 kts | 240° |
| 2026-05-06 21:31 | 60.25797 | 24.72833 | 6201 ft | 258 kts | 248° |
| 2026-05-06 21:32 | 60.25174 | 24.69411 | 7277 ft | 262 kts | 249° |
| 2026-05-06 21:32 | 60.22888 | 24.63847 | 9428 ft | 270 kts | 206° |
| 2026-05-06 21:32 | 60.21072 | 24.62816 | 10379 ft | 278 kts | 188° |
| 2026-05-06 21:33 | 60.19048 | 24.62718 | 10785 ft | 304 kts | 178° |
| 2026-05-06 21:33 | 60.16861 | 24.63067 | 11183 ft | 326 kts | 178° |
| 2026-05-06 21:33 | 60.14533 | 24.63345 | 11640 ft | 343 kts | 179° |
| 2026-05-06 21:33 | 60.12146 | 24.63589 | 12313 ft | 353 kts | 179° |
| 2026-05-06 21:34 | 60.09621 | 24.63850 | 13050 ft | 361 kts | 179° |
| 2026-05-06 21:34 | 60.07127 | 24.64114 | 13909 ft | 366 kts | 179° |
| 2026-05-06 21:34 | 60.04579 | 24.64387 | 14754 ft | 368 kts | 180° |
| 2026-05-06 21:34 | 60.02009 | 24.64661 | 15598 ft | 371 kts | 180° |
| 2026-05-06 21:35 | 59.99421 | 24.64935 | 16413 ft | 374 kts | 181° |
| 2026-05-06 21:35 | 59.96810 | 24.65213 | 17233 ft | 378 kts | 181° |
| 2026-05-06 21:35 | 59.94175 | 24.65491 | 18057 ft | 381 kts | 182° |
| 2026-05-06 21:35 | 59.91529 | 24.65356 | 18785 ft | 379 kts | 191° |
| 2026-05-06 21:36 | 59.88917 | 24.64621 | 19523 ft | 379 kts | 194° |
| 2026-05-06 21:36 | 59.86317 | 24.63669 | 20243 ft | 381 kts | 196° |
| 2026-05-06 21:36 | 59.83718 | 24.62585 | 20934 ft | 383 kts | 197° |
| 2026-05-06 21:36 | 59.81107 | 24.61433 | 21613 ft | 386 kts | 197° |
| 2026-05-06 21:37 | 59.78476 | 24.60255 | 22294 ft | 388 kts | 197° |
| 2026-05-06 21:37 | 59.75833 | 24.59078 | 22955 ft | 391 kts | 197° |
| 2026-05-06 21:37 | 59.73162 | 24.57903 | 23582 ft | 394 kts | 197° |
| 2026-05-06 21:37 | 59.70475 | 24.56735 | 24080 ft | 397 kts | 197° |
| 2026-05-06 21:38 | 59.67759 | 24.55564 | 24564 ft | 401 kts | 197° |
| 2026-05-06 21:38 | 59.65021 | 24.54392 | 25042 ft | 404 kts | 197° |
| 2026-05-06 21:38 | 59.62262 | 24.53216 | 25525 ft | 407 kts | 197° |
| 2026-05-06 21:38 | 59.59479 | 24.52033 | 25935 ft | 411 kts | 197° |
| 2026-05-06 21:39 | 59.56670 | 24.50839 | 26361 ft | 415 kts | 197° |
| 2026-05-06 21:39 | 59.53835 | 24.49636 | 26821 ft | 417 kts | 197° |
| 2026-05-06 21:39 | 59.50990 | 24.48431 | 27284 ft | 420 kts | 197° |
| 2026-05-06 21:39 | 59.48121 | 24.47217 | 27724 ft | 423 kts | 197° |
| 2026-05-06 21:40 | 59.45239 | 24.46000 | 28146 ft | 425 kts | 197° |
| 2026-05-06 21:40 | 59.42338 | 24.44776 | 28562 ft | 428 kts | 197° |
| 2026-05-06 21:40 | 59.39418 | 24.43546 | 28964 ft | 431 kts | 197° |
| 2026-05-06 21:40 | 59.36476 | 24.42309 | 29358 ft | 433 kts | 197° |
| 2026-05-06 21:41 | 59.33520 | 24.41070 | 29751 ft | 436 kts | 196° |
| 2026-05-06 21:41 | 59.30535 | 24.39902 | 30113 ft | 439 kts | 195° |
| 2026-05-06 21:41 | 59.27518 | 24.38817 | 30439 ft | 442 kts | 194° |
| 2026-05-06 21:41 | 59.24522 | 24.37780 | 30761 ft | 444 kts | 194° |
| 2026-05-06 21:42 | 59.21483 | 24.36734 | 31142 ft | 443 kts | 194° |
| 2026-05-06 21:42 | 59.18456 | 24.35688 | 31627 ft | 441 kts | 194° |
| 2026-05-06 21:42 | 59.15447 | 24.34638 | 32108 ft | 438 kts | 195° |
| 2026-05-06 21:42 | 59.12454 | 24.33583 | 32574 ft | 437 kts | 195° |
| 2026-05-06 21:43 | 59.09472 | 24.32526 | 33022 ft | 435 kts | 195° |
| 2026-05-06 21:43 | 59.06500 | 24.31469 | 33435 ft | 433 kts | 194° |
| 2026-05-06 21:43 | 59.03534 | 24.30413 | 33844 ft | 432 kts | 194° |
| 2026-05-06 21:43 | 59.00569 | 24.29360 | 34125 ft | 434 kts | 194° |
| 2026-05-06 21:44 | 58.97600 | 24.28309 | 34403 ft | 434 kts | 194° |
| 2026-05-06 21:44 | 58.94622 | 24.27257 | 34670 ft | 435 kts | 194° |
| 2026-05-06 21:44 | 58.91647 | 24.26210 | 34916 ft | 435 kts | 194° |
| 2026-05-06 21:44 | 58.88661 | 24.25161 | 35202 ft | 436 kts | 194° |
| 2026-05-06 21:45 | 58.85673 | 24.24113 | 35474 ft | 436 kts | 194° |
| 2026-05-06 21:45 | 58.82682 | 24.23065 | 35733 ft | 437 kts | 194° |
| 2026-05-06 21:45 | 58.79687 | 24.22018 | 35971 ft | 438 kts | 194° |
| 2026-05-06 21:45 | 58.76692 | 24.20973 | 36225 ft | 438 kts | 194° |
| 2026-05-06 21:46 | 58.73688 | 24.19927 | 36444 ft | 439 kts | 194° |
| 2026-05-06 21:46 | 58.70676 | 24.18879 | 36672 ft | 440 kts | 194° |
| 2026-05-06 21:46 | 58.67662 | 24.17832 | 36918 ft | 440 kts | 194° |
| 2026-05-06 21:46 | 58.64645 | 24.16787 | 37168 ft | 441 kts | 194° |
| 2026-05-06 21:47 | 58.61628 | 24.15744 | 37419 ft | 441 kts | 194° |
| 2026-05-06 21:47 | 58.58607 | 24.14701 | 37670 ft | 441 kts | 194° |
| 2026-05-06 21:47 | 58.55583 | 24.13659 | 37909 ft | 442 kts | 194° |
| 2026-05-06 21:47 | 58.52556 | 24.12617 | 38153 ft | 442 kts | 194° |
| 2026-05-06 21:48 | 58.49525 | 24.11574 | 38372 ft | 443 kts | 194° |
| 2026-05-06 21:48 | 58.46530 | 24.10540 | 38502 ft | 445 kts | 194° |
| 2026-05-06 21:48 | 58.40542 | 24.08467 | 38660 ft | 451 kts | 194° |
| 2026-05-06 21:49 | 58.34338 | 24.06327 | 38871 ft | 455 kts | 194° |
| 2026-05-06 21:49 | 58.31222 | 24.05257 | 39030 ft | 455 kts | 194° |
| 2026-05-06 21:49 | 58.28106 | 24.04192 | 39206 ft | 455 kts | 194° |
| 2026-05-06 21:50 | 58.24985 | 24.03134 | 39348 ft | 456 kts | 194° |
| 2026-05-06 21:50 | 58.21850 | 24.02078 | 39440 ft | 458 kts | 194° |
| 2026-05-06 21:50 | 58.15537 | 23.99974 | 39541 ft | 462 kts | 193° |
| 2026-05-06 21:51 | 58.09195 | 23.97889 | 39647 ft | 463 kts | 193° |
| 2026-05-06 21:51 | 58.02847 | 23.95835 | 39658 ft | 463 kts | 193° |
| 2026-05-06 21:52 | 57.97825 | 23.94248 | 39644 ft | 463 kts | 193° |